臺中航空站 - ATIS

METAR RCMQ 252100Z 00000KT 2800 BR FEW010 SCT025 BKN040 23/22 Q1010 NOSIG RMK A2984=

站台狀態:Online
最後更新:2019-05-26 05:00:03